createdAt,value
2022-09-23T00:01:10.826Z,55.80
2022-09-23T00:03:41.828Z,55.80
2022-09-23T00:06:11.113Z,55.80
2022-09-23T00:08:39.059Z,55.70
2022-09-23T00:11:09.039Z,55.80
2022-09-23T00:13:37.656Z,56.00
2022-09-23T00:16:07.311Z,56.00
2022-09-23T00:18:34.281Z,55.90
2022-09-23T00:21:05.438Z,55.80
2022-09-23T00:23:33.089Z,55.90
2022-09-23T00:26:01.638Z,55.90
2022-09-23T00:28:28.867Z,55.80
2022-09-23T00:30:55.703Z,55.90
2022-09-23T00:33:22.745Z,55.90
2022-09-23T00:35:49.891Z,56.00
2022-09-23T00:38:17.448Z,55.90
2022-09-23T00:40:46.218Z,55.80
2022-09-23T00:43:14.840Z,55.80
2022-09-23T00:45:49.732Z,56.00
2022-09-23T00:48:20.544Z,55.90
2022-09-23T00:50:54.250Z,55.90
2022-09-23T00:53:26.610Z,55.80
2022-09-23T00:56:02.736Z,55.90
2022-09-23T00:58:33.997Z,55.90
2022-09-23T01:01:02.267Z,56.00
2022-09-23T01:03:29.876Z,56.10
2022-09-23T01:05:58.030Z,56.60
2022-09-23T01:08:26.899Z,55.80
2022-09-23T01:11:24.476Z,56.00
2022-09-23T01:14:10.840Z,55.70
2022-09-23T01:16:52.802Z,56.00
2022-09-23T01:19:22.396Z,56.00
2022-09-23T01:21:49.338Z,56.10
2022-09-23T01:24:44.875Z,56.10
2022-09-23T01:27:27.924Z,56.20
2022-09-23T01:30:03.825Z,56.10
2022-09-23T01:32:57.988Z,56.20
2022-09-23T01:36:06.843Z,56.10
2022-09-23T01:38:59.138Z,55.60
2022-09-23T01:41:35.867Z,55.80
2022-09-23T01:44:11.396Z,56.30
2022-09-23T01:46:48.957Z,56.30
2022-09-23T01:49:41.824Z,56.20
2022-09-23T01:52:19.555Z,56.20
2022-09-23T01:55:01.882Z,56.20
2022-09-23T01:57:33.659Z,56.40
2022-09-23T02:00:14.031Z,56.40
2022-09-23T02:02:49.854Z,56.20
2022-09-23T02:05:19.894Z,56.30
2022-09-23T02:07:54.832Z,56.40
2022-09-23T02:10:44.669Z,56.50
2022-09-23T02:13:20.834Z,56.20
2022-09-23T02:15:53.923Z,56.30
2022-09-23T02:18:25.375Z,56.50
2022-09-23T02:20:58.604Z,56.30
2022-09-23T02:23:36.487Z,56.40
2022-09-23T02:26:14.673Z,56.50
2022-09-23T02:29:12.212Z,56.50
2022-09-23T02:31:53.777Z,56.40
2022-09-23T02:35:06.595Z,56.50
2022-09-23T02:37:49.820Z,56.00
2022-09-23T02:40:23.867Z,56.40
2022-09-23T02:43:15.145Z,56.40
2022-09-23T02:45:42.117Z,56.50
2022-09-23T02:48:22.932Z,56.60
2022-09-23T02:50:50.431Z,56.40
2022-09-23T02:53:17.279Z,56.40
2022-09-23T02:55:44.484Z,56.60
2022-09-23T02:58:14.059Z,56.60
2022-09-23T03:01:26.858Z,56.60
2022-09-23T03:04:22.579Z,56.30
2022-09-23T03:07:10.106Z,56.40
2022-09-23T03:09:45.557Z,56.30
2022-09-23T03:12:23.971Z,56.60
2022-09-23T03:15:30.136Z,56.50
2022-09-23T03:18:12.182Z,56.20
2022-09-23T03:20:49.542Z,56.50
2022-09-23T03:23:19.929Z,56.40
2022-09-23T03:25:49.800Z,56.50
2022-09-23T03:28:20.270Z,56.70
2022-09-23T03:30:47.929Z,56.50
2022-09-23T03:33:16.865Z,56.60
2022-09-23T03:36:11.252Z,56.70
2022-09-23T03:38:42.514Z,56.50
2022-09-23T03:41:16.807Z,57.40
2022-09-23T03:43:45.632Z,56.60
2022-09-23T03:46:13.135Z,56.60
2022-09-23T03:48:40.558Z,56.60
2022-09-23T03:51:23.765Z,56.80
2022-09-23T03:53:51.182Z,56.50
2022-09-23T03:56:18.095Z,56.70
2022-09-23T03:58:46.520Z,56.80
2022-09-23T04:01:14.782Z,56.70
2022-09-23T04:03:41.873Z,56.50
2022-09-23T04:06:08.916Z,56.40
2022-09-23T04:08:35.915Z,56.60
2022-09-23T04:11:04.740Z,56.80
2022-09-23T04:13:32.032Z,56.60
2022-09-23T04:15:59.134Z,56.60
2022-09-23T04:18:26.061Z,56.70
2022-09-23T04:21:00.042Z,56.60
2022-09-23T04:23:27.358Z,56.50
2022-09-23T04:25:54.864Z,56.80
2022-09-23T04:28:22.688Z,56.60
2022-09-23T04:30:49.637Z,56.60
2022-09-23T04:33:16.919Z,56.60
2022-09-23T04:35:43.853Z,56.50
2022-09-23T04:38:12.513Z,56.60
2022-09-23T04:40:40.035Z,56.50
2022-09-23T04:43:09.548Z,56.70
2022-09-23T04:45:40.117Z,56.70
2022-09-23T04:48:07.322Z,56.40
2022-09-23T04:50:34.516Z,56.90
2022-09-23T04:53:02.809Z,56.70
2022-09-23T04:55:29.778Z,56.70
2022-09-23T04:57:56.729Z,56.10
2022-09-23T05:00:24.397Z,55.80
2022-09-23T05:02:51.320Z,55.10
2022-09-23T05:05:22.332Z,55.30
2022-09-23T05:07:49.778Z,55.60
2022-09-23T05:10:17.529Z,55.70
2022-09-23T05:12:44.380Z,55.70
2022-09-23T05:15:13.445Z,55.90
2022-09-23T05:17:40.318Z,55.80
2022-09-23T05:20:07.908Z,55.00
2022-09-23T05:22:35.130Z,55.30
2022-09-23T05:25:02.457Z,55.30
2022-09-23T05:27:29.392Z,56.40
2022-09-23T05:29:56.214Z,56.30
2022-09-23T05:32:23.284Z,56.30
2022-09-23T05:34:50.123Z,56.80
2022-09-23T05:37:17.064Z,56.40
2022-09-23T05:39:43.881Z,56.50
2022-09-23T05:42:12.416Z,56.30
2022-09-23T05:44:39.323Z,56.70
2022-09-23T05:47:06.520Z,56.70
2022-09-23T05:49:58.110Z,56.40
2022-09-23T05:52:20.642Z,57.00
2022-09-23T05:54:47.448Z,57.20
2022-09-23T05:57:15.755Z,56.90
2022-09-23T05:59:47.407Z,56.90
2022-09-23T06:02:15.185Z,56.70
2022-09-23T06:04:43.070Z,56.90
2022-09-23T06:07:10.778Z,56.60
2022-09-23T06:09:37.832Z,56.60
2022-09-23T06:12:05.016Z,56.40
2022-09-23T06:14:32.104Z,56.40
2022-09-23T06:16:58.942Z,56.30
2022-09-23T06:19:25.979Z,56.80
2022-09-23T06:21:53.043Z,55.90
2022-09-23T06:24:22.928Z,56.10
2022-09-23T06:26:51.835Z,55.70
2022-09-23T06:29:18.741Z,55.50
2022-09-23T06:31:45.683Z,55.70
2022-09-23T06:34:14.434Z,55.50
2022-09-23T06:36:46.372Z,56.30
2022-09-23T06:39:14.951Z,55.50
2022-09-23T06:41:42.117Z,55.00
2022-09-23T06:44:13.559Z,55.40
2022-09-23T06:46:40.535Z,54.90
2022-09-23T06:49:07.508Z,54.50
2022-09-23T06:51:34.760Z,54.50
2022-09-23T06:54:01.639Z,54.40
2022-09-23T06:56:28.556Z,54.30
2022-09-23T06:58:55.357Z,54.30
2022-09-23T07:01:23.240Z,53.90
2022-09-23T07:03:50.657Z,54.10
2022-09-23T07:06:17.848Z,53.90
2022-09-23T07:08:47.154Z,53.70
2022-09-23T07:11:15.691Z,53.90
2022-09-23T07:13:43.309Z,53.90
2022-09-23T07:16:11.471Z,53.70
2022-09-23T07:18:38.924Z,53.90
2022-09-23T07:21:07.015Z,53.80
2022-09-23T07:23:34.148Z,53.80
2022-09-23T07:26:01.510Z,53.70
2022-09-23T07:28:29.221Z,54.00
2022-09-23T07:31:00.441Z,53.70
2022-09-23T07:33:33.094Z,54.10
2022-09-23T07:36:07.572Z,53.90
2022-09-23T07:38:35.303Z,54.10
2022-09-23T07:41:08.895Z,54.40
2022-09-23T07:43:37.280Z,53.70
2022-09-23T07:46:08.368Z,54.30
2022-09-23T07:48:36.839Z,53.70
2022-09-23T07:51:17.516Z,53.80
2022-09-23T07:53:48.405Z,53.90
2022-09-23T07:56:15.519Z,53.70
2022-09-23T07:58:42.367Z,53.90
2022-09-23T08:01:11.852Z,53.80
2022-09-23T08:03:39.628Z,53.90
2022-09-23T08:06:12.076Z,54.10
2022-09-23T08:08:43.585Z,54.00
2022-09-23T08:11:13.338Z,54.00
2022-09-23T08:13:41.367Z,54.30
2022-09-23T08:16:09.087Z,54.80
2022-09-23T08:18:36.521Z,54.70
2022-09-23T08:21:04.122Z,54.50
2022-09-23T08:23:33.711Z,53.60
2022-09-23T08:26:03.013Z,53.60
2022-09-23T08:28:30.639Z,53.50
2022-09-23T08:30:57.542Z,54.20
2022-09-23T08:33:24.698Z,53.60
2022-09-23T08:35:52.770Z,54.30
2022-09-23T08:38:20.407Z,53.30
2022-09-23T08:40:50.096Z,53.70
2022-09-23T08:43:27.031Z,53.00
2022-09-23T08:45:57.455Z,53.10
2022-09-23T08:48:38.605Z,53.30
2022-09-23T08:51:37.214Z,52.70
2022-09-23T08:54:04.565Z,53.80
2022-09-23T08:56:35.446Z,54.10
2022-09-23T08:59:16.647Z,54.70
2022-09-23T09:01:53.156Z,54.70
2022-09-23T09:04:27.521Z,54.40
2022-09-23T09:07:35.084Z,53.90
2022-09-23T09:10:41.522Z,53.80
2022-09-23T09:13:30.995Z,52.90
2022-09-23T09:16:13.748Z,53.10
2022-09-23T09:18:53.244Z,53.00
2022-09-23T09:21:27.046Z,53.70
2022-09-23T09:23:59.713Z,54.10
2022-09-23T09:26:34.991Z,54.10
2022-09-23T09:29:34.936Z,54.30
2022-09-23T09:32:22.884Z,54.00
2022-09-23T09:34:54.690Z,54.10
2022-09-23T09:37:35.890Z,53.70
2022-09-23T09:40:03.165Z,54.20
2022-09-23T09:42:41.313Z,53.50
2022-09-23T09:45:33.380Z,54.50
2022-09-23T09:48:10.965Z,53.70
2022-09-23T09:50:56.025Z,54.10
2022-09-23T09:53:29.374Z,54.30
2022-09-23T09:56:08.916Z,54.50
2022-09-23T09:58:47.857Z,54.50
2022-09-23T10:01:25.731Z,54.50
2022-09-23T10:03:55.703Z,54.30
2022-09-23T10:06:32.558Z,54.30
2022-09-23T10:09:02.261Z,54.50
2022-09-23T10:11:30.286Z,54.50
2022-09-23T10:14:03.162Z,54.10
2022-09-23T10:16:32.102Z,54.50
2022-09-23T10:19:17.258Z,54.20
2022-09-23T10:21:50.254Z,54.40
2022-09-23T10:24:23.411Z,54.20
2022-09-23T10:27:07.835Z,54.90
2022-09-23T10:29:37.439Z,55.00
2022-09-23T10:32:25.911Z,54.50
2022-09-23T10:35:00.377Z,54.80
2022-09-23T10:37:41.485Z,54.80
2022-09-23T10:40:45.640Z,54.50
2022-09-23T10:44:08.943Z,54.40
2022-09-23T10:46:51.368Z,55.40
2022-09-23T10:49:46.299Z,55.90
2022-09-23T10:52:36.371Z,55.30
2022-09-23T10:55:30.153Z,55.10
2022-09-23T10:58:14.911Z,56.20
2022-09-23T11:01:02.155Z,56.20
2022-09-23T11:03:48.080Z,56.40
2022-09-23T11:06:33.194Z,56.10
2022-09-23T11:09:27.522Z,56.00
2022-09-23T11:12:03.122Z,55.70
2022-09-23T11:14:56.883Z,56.10
2022-09-23T11:17:46.902Z,55.90
2022-09-23T11:20:29.122Z,56.00
2022-09-23T11:23:23.153Z,56.60
2022-09-23T11:26:21.353Z,56.60
2022-09-23T11:29:11.932Z,56.40
2022-09-23T11:32:04.739Z,56.00
2022-09-23T11:34:43.162Z,56.00
2022-09-23T11:37:18.638Z,56.20
2022-09-23T11:39:50.648Z,55.90
2022-09-23T11:42:23.975Z,56.10
2022-09-23T11:44:59.608Z,57.00
2022-09-23T11:47:35.270Z,56.40
2022-09-23T11:50:16.094Z,56.30
2022-09-23T11:52:51.203Z,56.20
2022-09-23T11:55:32.211Z,56.80
2022-09-23T11:58:26.144Z,56.80
2022-09-23T12:01:03.219Z,56.80
2022-09-23T12:03:44.756Z,56.90
2022-09-23T12:06:36.952Z,57.30
2022-09-23T12:09:40.905Z,57.70
2022-09-23T12:12:48.783Z,57.00
2022-09-23T12:15:50.584Z,57.00
2022-09-23T12:18:49.653Z,56.90
2022-09-23T12:24:38.097Z,57.30
2022-09-23T12:27:12.104Z,56.80
2022-09-23T12:29:41.387Z,56.90
2022-09-23T12:32:19.474Z,57.70
2022-09-23T12:34:49.193Z,57.50
2022-09-23T12:37:24.421Z,57.10
2022-09-23T12:39:51.454Z,57.10
2022-09-23T12:42:21.933Z,56.80
2022-09-23T12:44:49.369Z,57.10
2022-09-23T12:47:25.226Z,57.90
2022-09-23T12:49:53.379Z,57.30
2022-09-23T12:52:20.168Z,57.20
2022-09-23T12:54:51.734Z,57.00
2022-09-23T12:57:21.390Z,57.00
2022-09-23T13:00:13.740Z,57.30
2022-09-23T13:02:41.968Z,57.40
2022-09-23T13:05:31.699Z,57.70
2022-09-23T13:08:05.377Z,57.80
2022-09-23T13:10:49.786Z,57.60
2022-09-23T13:13:40.075Z,57.40
2022-09-23T13:16:13.420Z,56.80
2022-09-23T13:18:50.863Z,57.30
2022-09-23T13:21:39.368Z,57.10
2022-09-23T13:24:45.961Z,57.60
2022-09-23T13:27:32.659Z,57.30
2022-09-23T13:30:19.309Z,58.10
2022-09-23T13:32:53.661Z,57.30
2022-09-23T13:35:27.240Z,57.50
2022-09-23T13:37:54.453Z,57.70
2022-09-23T13:40:31.123Z,57.60
2022-09-23T13:43:01.153Z,57.90
2022-09-23T13:45:30.966Z,58.60
2022-09-23T13:48:06.032Z,57.90
2022-09-23T13:50:36.570Z,57.80
2022-09-23T13:53:11.377Z,58.00
2022-09-23T13:55:39.555Z,57.80
2022-09-23T13:58:21.936Z,57.90
2022-09-23T14:00:50.228Z,57.80
2022-09-23T14:03:36.447Z,57.80
2022-09-23T14:06:15.173Z,57.80
2022-09-23T14:08:45.809Z,58.00
2022-09-23T14:11:22.364Z,57.70
2022-09-23T14:13:55.137Z,57.70
2022-09-23T14:16:28.198Z,58.00
2022-09-23T14:19:00.085Z,57.80
2022-09-23T14:21:34.752Z,57.80
2022-09-23T14:24:15.291Z,57.60
2022-09-23T14:26:46.252Z,57.70
2022-09-23T14:29:29.278Z,57.60
2022-09-23T14:32:00.252Z,57.50
2022-09-23T14:34:49.536Z,57.70
2022-09-23T14:38:10.286Z,57.60
2022-09-23T14:40:49.819Z,57.60
2022-09-23T14:43:18.167Z,57.50
2022-09-23T14:45:47.750Z,57.70
2022-09-23T14:48:18.819Z,57.40
2022-09-23T14:50:57.329Z,57.50
2022-09-23T14:53:40.419Z,57.60
2022-09-23T14:56:07.406Z,57.60
2022-09-23T14:58:49.514Z,57.60
2022-09-23T15:01:26.081Z,57.50
2022-09-23T15:03:54.559Z,57.50
2022-09-23T15:06:23.207Z,57.30
2022-09-23T15:08:52.606Z,57.50
2022-09-23T15:11:21.414Z,57.40
2022-09-23T15:13:53.002Z,57.40
2022-09-23T15:16:26.839Z,57.80
2022-09-23T15:18:59.530Z,57.50
2022-09-23T15:21:40.930Z,57.20
2022-09-23T15:24:39.889Z,57.10
2022-09-23T15:27:21.114Z,57.30
2022-09-23T15:29:49.713Z,57.30
2022-09-23T15:32:16.619Z,57.10
2022-09-23T15:34:43.457Z,57.30
2022-09-23T15:37:12.584Z,57.20
2022-09-23T15:39:39.488Z,57.30
2022-09-23T15:42:08.021Z,57.60
2022-09-23T15:44:36.499Z,57.40
2022-09-23T15:47:03.696Z,57.70
2022-09-23T15:49:36.847Z,57.50
2022-09-23T15:52:05.957Z,57.30
2022-09-23T15:54:33.819Z,57.30
2022-09-23T15:57:01.163Z,57.50
2022-09-23T15:59:30.916Z,57.90
2022-09-23T16:02:02.074Z,58.00
2022-09-23T16:04:31.371Z,57.40
2022-09-23T16:06:59.234Z,57.30
2022-09-23T16:09:30.772Z,57.50
2022-09-23T16:11:57.916Z,57.30
2022-09-23T16:14:25.167Z,57.50
2022-09-23T16:16:52.187Z,57.70
2022-09-23T16:19:19.180Z,58.00
2022-09-23T16:21:46.302Z,57.80
2022-09-23T16:24:17.251Z,58.00
2022-09-23T16:26:46.627Z,58.00
2022-09-23T16:29:13.722Z,58.00
2022-09-23T16:31:41.190Z,57.90
2022-09-23T16:34:08.142Z,57.70
2022-09-23T16:36:40.655Z,57.70
2022-09-23T16:39:10.772Z,57.70
2022-09-23T16:41:37.901Z,58.00
2022-09-23T16:44:07.431Z,57.80
2022-09-23T16:46:35.187Z,58.00
2022-09-23T16:49:02.391Z,58.00
2022-09-23T16:51:40.338Z,58.30
2022-09-23T16:54:10.361Z,58.50
2022-09-23T16:56:41.781Z,58.80
2022-09-23T16:59:08.922Z,59.10
2022-09-23T17:01:54.834Z,59.10
2022-09-23T17:04:22.766Z,59.10
2022-09-23T17:07:54.894Z,59.20
2022-09-23T17:10:21.879Z,59.10
2022-09-23T17:12:48.683Z,59.40
2022-09-23T17:15:15.617Z,59.50
2022-09-23T17:17:42.430Z,59.50
2022-09-23T17:20:09.680Z,59.40
2022-09-23T17:22:36.554Z,59.60
2022-09-23T17:25:03.882Z,59.60
2022-09-23T17:27:31.897Z,59.60
2022-09-23T17:29:59.345Z,59.70
2022-09-23T17:32:27.202Z,59.80
2022-09-23T17:34:54.343Z,59.90
2022-09-23T17:37:21.203Z,60.00
2022-09-23T17:39:48.017Z,60.00
2022-09-23T17:42:15.343Z,60.10
2022-09-23T17:44:42.253Z,60.10
2022-09-23T17:47:09.270Z,60.20
2022-09-23T17:49:36.168Z,60.30
2022-09-23T17:52:05.628Z,60.40
2022-09-23T17:54:33.135Z,60.40
2022-09-23T17:57:00.433Z,60.50
2022-09-23T17:59:27.585Z,60.60
2022-09-23T18:01:54.850Z,60.70
2022-09-23T18:04:21.834Z,61.40
2022-09-23T18:06:48.738Z,60.70
2022-09-23T18:09:15.580Z,60.70
2022-09-23T18:11:45.051Z,60.90
2022-09-23T18:14:16.528Z,61.20
2022-09-23T18:16:46.153Z,61.30
2022-09-23T18:19:16.096Z,61.40
2022-09-23T18:21:46.737Z,61.50
2022-09-23T18:27:01.609Z,64.40
2022-09-23T18:29:28.677Z,65.30
2022-09-23T18:31:55.976Z,65.70
2022-09-23T18:34:23.630Z,65.70
2022-09-23T18:36:50.760Z,65.10
2022-09-23T18:39:17.572Z,64.50
2022-09-23T18:41:44.671Z,64.00
2022-09-23T18:44:11.579Z,63.70
2022-09-23T18:46:38.538Z,63.40
2022-09-23T18:49:24.137Z,63.20
2022-09-23T18:51:56.421Z,63.00
2022-09-23T18:54:25.481Z,62.90
2022-09-23T18:56:52.849Z,62.90
2022-09-23T18:59:24.849Z,62.80
2022-09-23T19:01:55.675Z,62.60
2022-09-23T19:04:24.210Z,62.60
2022-09-23T19:06:51.111Z,62.60
2022-09-23T19:09:19.055Z,62.50
2022-09-23T19:11:46.418Z,62.40
2022-09-23T19:14:13.567Z,62.40
2022-09-23T19:16:41.568Z,62.30
2022-09-23T19:19:09.340Z,62.30
2022-09-23T19:21:37.365Z,62.30
2022-09-23T19:24:07.108Z,62.30
2022-09-23T19:26:41.524Z,62.30
2022-09-23T19:29:17.069Z,62.20
2022-09-23T19:31:44.089Z,62.20
2022-09-23T19:34:19.856Z,62.30
2022-09-23T19:36:47.759Z,62.30
2022-09-23T19:39:23.029Z,62.30
2022-09-23T19:41:51.098Z,62.20
2022-09-23T19:44:20.017Z,62.20
2022-09-23T19:46:51.716Z,62.20
2022-09-23T19:49:21.896Z,62.20
2022-09-23T19:51:49.455Z,62.20
2022-09-23T19:54:20.787Z,62.10
2022-09-23T19:56:49.640Z,62.10
2022-09-23T19:59:19.138Z,62.20
2022-09-23T20:01:48.714Z,62.20
2022-09-23T20:04:16.682Z,63.00
2022-09-23T20:06:43.978Z,62.20
2022-09-23T20:09:11.001Z,62.20
2022-09-23T20:11:38.856Z,62.20
2022-09-23T20:14:06.558Z,62.20
2022-09-23T20:16:37.582Z,62.20
2022-09-23T20:19:05.849Z,62.20
2022-09-23T20:21:33.586Z,62.30
2022-09-23T20:24:01.027Z,62.20
2022-09-23T20:26:46.372Z,62.20
2022-09-23T20:29:14.173Z,62.20
2022-09-23T20:31:41.584Z,62.20
2022-09-23T20:34:11.016Z,62.30
2022-09-23T20:36:40.006Z,62.30
2022-09-23T20:39:07.297Z,62.40
2022-09-23T20:41:37.524Z,63.10
2022-09-23T20:44:07.549Z,62.40
2022-09-23T20:46:35.108Z,62.50
2022-09-23T20:49:03.845Z,62.20
2022-09-23T20:51:33.285Z,62.30
2022-09-23T20:54:00.823Z,62.30
2022-09-23T20:56:28.624Z,62.20
2022-09-23T20:59:02.865Z,62.30
2022-09-23T21:01:33.168Z,62.30
2022-09-23T21:04:00.705Z,62.40
2022-09-23T21:06:27.661Z,62.30
2022-09-23T21:08:55.020Z,62.30
2022-09-23T21:11:22.840Z,62.20
2022-09-23T21:13:51.577Z,62.40
2022-09-23T21:16:21.438Z,62.30
2022-09-23T21:18:49.252Z,63.10
2022-09-23T21:21:19.305Z,62.40
2022-09-23T21:23:46.815Z,62.30
2022-09-23T21:26:21.721Z,62.20
2022-09-23T21:28:50.921Z,62.20
2022-09-23T21:31:24.053Z,62.10
2022-09-23T21:34:01.461Z,62.30
2022-09-23T21:36:30.871Z,62.20
2022-09-23T21:38:58.216Z,62.10
2022-09-23T21:41:25.355Z,62.10
2022-09-23T21:43:52.321Z,62.00
2022-09-23T21:46:21.155Z,62.00
2022-09-23T21:48:54.984Z,62.20
2022-09-23T21:51:24.997Z,62.10
2022-09-23T21:53:54.575Z,62.00
2022-09-23T21:56:24.141Z,62.00
2022-09-23T21:58:53.289Z,61.90
2022-09-23T22:01:26.204Z,62.00
2022-09-23T22:03:55.028Z,61.90
2022-09-23T22:06:27.485Z,61.90
2022-09-23T22:08:59.667Z,61.90
2022-09-23T22:11:51.882Z,61.90
2022-09-23T22:14:20.582Z,62.00
2022-09-23T22:16:47.513Z,62.10
2022-09-23T22:19:15.629Z,62.00
2022-09-23T22:21:45.105Z,62.00
2022-09-23T22:24:12.996Z,62.10
2022-09-23T22:26:41.951Z,62.00
2022-09-23T22:29:30.019Z,62.00
2022-09-23T22:32:15.880Z,62.00
2022-09-23T22:34:51.381Z,62.00
2022-09-23T22:37:21.688Z,62.10
2022-09-23T22:39:48.739Z,62.20
2022-09-23T22:42:16.167Z,62.20
2022-09-23T22:44:43.115Z,62.20
2022-09-23T22:47:10.742Z,62.10
2022-09-23T22:49:37.638Z,62.10
2022-09-23T22:52:08.036Z,62.30
2022-09-23T22:54:35.684Z,62.90
2022-09-23T22:57:07.208Z,62.30
2022-09-23T22:59:35.402Z,62.40
2022-09-23T23:02:02.995Z,62.30
2022-09-23T23:04:30.513Z,62.20
2022-09-23T23:06:58.760Z,62.40
2022-09-23T23:09:26.236Z,62.40
2022-09-23T23:11:53.181Z,62.50
2022-09-23T23:14:20.573Z,62.60
2022-09-23T23:16:48.661Z,62.50
2022-09-23T23:19:19.238Z,62.50
2022-09-23T23:21:46.179Z,62.50
2022-09-23T23:24:23.808Z,62.50
2022-09-23T23:26:51.902Z,62.50
2022-09-23T23:29:20.857Z,62.60
2022-09-23T23:31:48.373Z,62.60
2022-09-23T23:34:21.073Z,62.60
2022-09-23T23:36:54.993Z,62.50
2022-09-23T23:39:23.845Z,62.50
2022-09-23T23:41:55.810Z,62.50
2022-09-23T23:44:24.641Z,62.40
2022-09-23T23:46:52.257Z,62.50
2022-09-23T23:49:19.521Z,62.50
2022-09-23T23:51:46.559Z,62.40
2022-09-23T23:54:15.319Z,62.30
2022-09-23T23:56:42.681Z,62.30
2022-09-23T23:59:09.530Z,62.20
